createdAt,value
2019-05-23T00:00:48.778Z,4.70
2019-05-23T00:03:54.590Z,4.03
2019-05-23T00:06:41.871Z,8.15
2019-05-23T00:09:29.618Z,3.62
2019-05-23T00:12:15.479Z,3.92
2019-05-23T00:14:53.110Z,4.83
2019-05-23T00:17:22.661Z,3.92
2019-05-23T00:19:51.864Z,4.03
2019-05-23T00:22:19.786Z,4.80
2019-05-23T00:24:48.339Z,4.62
2019-05-23T00:27:17.446Z,4.25
2019-05-23T00:29:48.540Z,4.47
2019-05-23T00:32:26.967Z,5.10
2019-05-23T00:34:55.737Z,4.60
2019-05-23T00:37:23.749Z,5.00
2019-05-23T00:39:53.612Z,7.10
2019-05-23T00:42:22.190Z,7.33
2019-05-23T00:44:51.685Z,9.08
2019-05-23T00:47:20.936Z,6.60
2019-05-23T00:49:51.268Z,5.40
2019-05-23T00:52:19.857Z,5.20
2019-05-23T00:54:49.868Z,6.60
2019-05-23T00:57:19.666Z,5.78
2019-05-23T00:59:49.614Z,5.80
2019-05-23T01:02:19.117Z,5.53
2019-05-23T01:04:46.716Z,6.12
2019-05-23T01:07:15.726Z,5.70
2019-05-23T01:09:46.005Z,6.55
2019-05-23T01:12:15.463Z,5.78
2019-05-23T01:14:44.436Z,5.35
2019-05-23T01:17:15.740Z,5.40
2019-05-23T01:19:45.276Z,8.03
2019-05-23T01:22:13.916Z,5.55
2019-05-23T01:24:44.062Z,6.22
2019-05-23T01:27:13.339Z,6.40
2019-05-23T01:29:49.626Z,6.60
2019-05-23T01:32:40.960Z,5.65
2019-05-23T01:35:12.165Z,6.35
2019-05-23T01:37:40.846Z,6.50
2019-05-23T01:40:10.945Z,7.40
2019-05-23T01:42:40.963Z,7.22
2019-05-23T01:45:11.795Z,6.53
2019-05-23T01:47:39.522Z,6.85
2019-05-23T01:50:10.391Z,9.10
2019-05-23T01:52:41.611Z,8.15
2019-05-23T01:55:10.684Z,6.25
2019-05-23T01:57:39.809Z,9.08
2019-05-23T02:00:11.953Z,6.53
2019-05-23T02:02:40.781Z,6.20
2019-05-23T02:05:09.936Z,7.30
2019-05-23T02:07:38.352Z,6.20
2019-05-23T02:10:08.086Z,7.42
2019-05-23T02:12:37.398Z,7.03
2019-05-23T02:15:05.589Z,7.78
2019-05-23T02:17:34.501Z,7.50
2019-05-23T02:20:04.751Z,7.53
2019-05-23T02:22:34.503Z,6.53
2019-05-23T02:25:04.263Z,7.03
2019-05-23T02:27:32.596Z,7.67
2019-05-23T02:30:00.722Z,7.05
2019-05-23T02:32:30.182Z,6.35
2019-05-23T02:34:58.490Z,6.53
2019-05-23T02:37:47.065Z,6.28
2019-05-23T02:40:25.383Z,7.20
2019-05-23T02:42:59.550Z,6.92
2019-05-23T02:45:34.370Z,7.30
2019-05-23T02:48:05.469Z,6.45
2019-05-23T02:50:43.128Z,6.85
2019-05-23T02:53:15.563Z,9.73
2019-05-23T02:55:45.708Z,8.65
2019-05-23T02:58:51.395Z,7.60
2019-05-23T03:01:43.415Z,6.55
2019-05-23T03:04:15.029Z,5.67
2019-05-23T03:06:44.932Z,6.83
2019-05-23T03:09:15.804Z,6.20
2019-05-23T03:11:48.420Z,7.90
2019-05-23T03:14:18.332Z,6.40
2019-05-23T03:16:49.276Z,6.25
2019-05-23T03:19:36.633Z,8.75
2019-05-23T03:22:51.498Z,7.75
2019-05-23T03:26:06.507Z,6.72
2019-05-23T03:28:40.002Z,7.03
2019-05-23T03:31:28.604Z,7.83
2019-05-23T03:33:46.575Z,7.20
2019-05-23T03:36:14.587Z,8.68
2019-05-23T03:38:42.787Z,7.78
2019-05-23T03:41:12.189Z,5.70
2019-05-23T03:43:42.240Z,9.35
2019-05-23T03:46:13.027Z,9.35
2019-05-23T03:48:42.015Z,12.07
2019-05-23T03:51:09.812Z,7.37
2019-05-23T03:53:39.094Z,6.15
2019-05-23T03:56:07.314Z,6.70
2019-05-23T03:58:37.009Z,7.03
2019-05-23T04:01:06.991Z,7.50
2019-05-23T04:03:39.847Z,7.25
2019-05-23T04:06:07.026Z,7.95
2019-05-23T04:08:36.359Z,6.83
2019-05-23T04:11:04.678Z,6.65
2019-05-23T04:13:34.021Z,6.12
2019-05-23T04:16:03.263Z,7.90
2019-05-23T04:18:32.719Z,6.65
2019-05-23T04:21:00.699Z,7.17
2019-05-23T04:23:28.893Z,7.75
2019-05-23T04:25:57.071Z,8.95
2019-05-23T04:28:24.727Z,8.60
2019-05-23T04:30:53.683Z,6.33
2019-05-23T04:33:21.929Z,7.83
2019-05-23T04:35:50.980Z,6.12
2019-05-23T04:38:18.834Z,8.55
2019-05-23T04:40:49.024Z,6.00
2019-05-23T04:43:16.639Z,9.73
2019-05-23T04:45:44.730Z,9.60
2019-05-23T04:48:13.723Z,5.05
2019-05-23T04:50:43.102Z,5.20
2019-05-23T04:53:11.900Z,4.72
2019-05-23T04:55:41.587Z,4.53
2019-05-23T04:58:10.542Z,6.25
2019-05-23T05:00:40.591Z,5.53
2019-05-23T05:03:09.287Z,5.65
2019-05-23T05:05:38.109Z,5.67
2019-05-23T05:08:06.844Z,5.80
2019-05-23T05:10:35.952Z,4.55
2019-05-23T05:13:03.612Z,4.80
2019-05-23T05:15:32.235Z,6.45
2019-05-23T05:18:01.144Z,6.30
2019-05-23T05:20:29.830Z,10.40
2019-05-23T05:22:58.467Z,4.37
2019-05-23T05:25:28.606Z,5.50
2019-05-23T05:27:56.558Z,7.75
2019-05-23T05:30:25.539Z,6.47
2019-05-23T05:32:55.088Z,9.80
2019-05-23T05:35:23.623Z,11.60
2019-05-23T05:37:51.662Z,9.15
2019-05-23T05:40:20.416Z,8.40
2019-05-23T05:42:49.588Z,9.63
2019-05-23T05:45:18.876Z,10.00
2019-05-23T05:47:46.773Z,8.83
2019-05-23T05:50:14.904Z,6.72
2019-05-23T05:52:42.587Z,5.97
2019-05-23T05:55:12.297Z,6.08
2019-05-23T05:57:39.962Z,6.47
2019-05-23T06:00:13.170Z,6.20
2019-05-23T06:02:40.778Z,4.30
2019-05-23T06:05:11.926Z,4.70
2019-05-23T06:07:41.431Z,4.00
2019-05-23T06:10:12.144Z,4.90
2019-05-23T06:12:39.801Z,6.35
2019-05-23T06:15:09.373Z,5.80
2019-05-23T06:17:39.042Z,4.55
2019-05-23T06:20:08.756Z,6.92
2019-05-23T06:22:37.671Z,8.73
2019-05-23T06:25:06.520Z,5.67
2019-05-23T06:27:35.600Z,7.40
2019-05-23T06:30:06.733Z,5.75
2019-05-23T06:32:35.206Z,4.70
2019-05-23T06:35:04.768Z,6.25
2019-05-23T06:37:34.642Z,5.15
2019-05-23T06:40:05.425Z,4.47
2019-05-23T06:42:33.525Z,5.53
2019-05-23T06:45:02.011Z,19.50
2019-05-23T06:47:30.662Z,5.42
2019-05-23T06:49:58.809Z,7.95
2019-05-23T06:52:26.377Z,4.92
2019-05-23T06:54:54.367Z,7.58
2019-05-23T06:57:22.128Z,4.80
2019-05-23T06:59:50.074Z,7.30
2019-05-23T07:02:18.264Z,7.62
2019-05-23T07:04:46.323Z,6.87
2019-05-23T07:07:14.761Z,7.45
2019-05-23T07:09:42.758Z,7.67
2019-05-23T07:12:10.789Z,6.58
2019-05-23T07:14:38.483Z,6.87
2019-05-23T07:17:08.894Z,6.95
2019-05-23T07:19:36.815Z,9.18
2019-05-23T07:22:04.579Z,7.12
2019-05-23T07:24:33.634Z,9.60
2019-05-23T07:27:02.015Z,6.50
2019-05-23T07:29:30.355Z,5.93
2019-05-23T07:31:58.178Z,6.80
2019-05-23T07:34:26.601Z,5.20
2019-05-23T07:36:54.713Z,6.77
2019-05-23T07:39:22.879Z,9.57
2019-05-23T07:41:51.138Z,5.97
2019-05-23T07:44:19.757Z,7.27
2019-05-23T07:46:47.768Z,13.10
2019-05-23T07:49:16.694Z,6.80
2019-05-23T07:51:45.353Z,8.03
2019-05-23T07:54:38.654Z,11.03
2019-05-23T07:57:12.145Z,11.83
2019-05-23T07:59:40.133Z,6.17
2019-05-23T08:02:18.864Z,7.03
2019-05-23T08:04:46.773Z,7.37
2019-05-23T08:07:16.443Z,6.43
2019-05-23T08:09:45.272Z,6.40
2019-05-23T08:12:13.002Z,6.63
2019-05-23T08:14:41.046Z,6.57
2019-05-23T08:17:09.565Z,5.97
2019-05-23T08:19:48.975Z,6.43
2019-05-23T08:22:07.164Z,5.60
2019-05-23T08:24:34.952Z,8.90
2019-05-23T08:27:05.026Z,6.90
2019-05-23T08:29:33.320Z,6.50
2019-05-23T08:32:00.914Z,6.20
2019-05-23T08:34:40.918Z,6.27
2019-05-23T08:36:58.674Z,5.60
2019-05-23T08:39:30.133Z,6.10
2019-05-23T08:41:58.662Z,6.70
2019-05-23T08:44:26.556Z,11.30
2019-05-23T08:46:57.244Z,6.40
2019-05-23T08:49:26.106Z,5.73
2019-05-23T08:51:54.451Z,5.60
2019-05-23T08:54:22.057Z,5.47
2019-05-23T08:56:51.123Z,6.00
2019-05-23T08:59:19.612Z,5.10
2019-05-23T09:01:47.684Z,4.43
2019-05-23T09:04:17.077Z,7.37
2019-05-23T09:06:45.324Z,4.87
2019-05-23T09:09:29.061Z,5.20
2019-05-23T09:11:44.930Z,4.50
2019-05-23T09:14:13.122Z,5.87
2019-05-23T09:16:41.335Z,5.70
2019-05-23T09:19:09.434Z,5.37
2019-05-23T09:21:37.840Z,5.37
2019-05-23T09:24:06.025Z,5.17
2019-05-23T09:26:34.740Z,7.40
2019-05-23T09:29:03.894Z,9.30
2019-05-23T09:31:31.888Z,4.80
2019-05-23T09:33:59.748Z,3.43
2019-05-23T09:36:27.813Z,4.13
2019-05-23T09:38:55.542Z,4.07
2019-05-23T09:41:23.572Z,5.07
2019-05-23T09:43:51.146Z,4.03
2019-05-23T09:46:19.429Z,3.93
2019-05-23T09:48:48.944Z,6.20
2019-05-23T09:51:19.206Z,6.53
2019-05-23T09:53:48.454Z,3.43
2019-05-23T09:56:16.285Z,3.93
2019-05-23T09:58:44.171Z,8.83
2019-05-23T10:01:12.873Z,5.67
2019-05-23T10:03:40.754Z,3.10
2019-05-23T10:06:09.961Z,3.27
2019-05-23T10:08:38.008Z,3.70
2019-05-23T10:11:07.534Z,3.30
2019-05-23T10:13:39.206Z,3.10
2019-05-23T10:16:09.773Z,3.10
2019-05-23T10:18:38.438Z,2.90
2019-05-23T10:21:07.153Z,3.97
2019-05-23T10:23:35.612Z,4.70
2019-05-23T10:26:08.107Z,4.23
2019-05-23T10:28:35.941Z,4.27
2019-05-23T10:31:08.048Z,4.13
2019-05-23T10:33:36.677Z,2.60
2019-05-23T10:36:05.767Z,3.53
2019-05-23T10:38:34.577Z,2.90
2019-05-23T10:41:04.971Z,3.27
2019-05-23T10:43:32.868Z,2.50
2019-05-23T10:46:01.449Z,6.83
2019-05-23T10:48:29.986Z,2.67
2019-05-23T10:50:58.809Z,2.40
2019-05-23T10:53:31.552Z,2.70
2019-05-23T10:56:03.431Z,3.63
2019-05-23T10:58:32.817Z,3.00
2019-05-23T11:01:00.765Z,2.50
2019-05-23T11:03:29.304Z,2.50
2019-05-23T11:05:57.493Z,2.73
2019-05-23T11:08:30.398Z,2.20
2019-05-23T11:10:59.048Z,1.90
2019-05-23T11:13:27.547Z,1.57
2019-05-23T11:15:56.717Z,1.97
2019-05-23T11:18:24.924Z,2.37
2019-05-23T11:20:52.964Z,2.87
2019-05-23T11:23:28.350Z,2.37
2019-05-23T11:26:00.898Z,1.73
2019-05-23T11:28:28.450Z,2.20
2019-05-23T11:30:56.708Z,1.90
2019-05-23T11:33:25.955Z,1.93
2019-05-23T11:35:54.505Z,3.73
2019-05-23T11:38:22.985Z,1.97
2019-05-23T11:40:51.168Z,1.90
2019-05-23T11:43:18.862Z,2.40
2019-05-23T11:45:49.349Z,1.67
2019-05-23T11:48:17.686Z,2.13
2019-05-23T11:50:47.124Z,3.07
2019-05-23T11:53:14.709Z,3.80
2019-05-23T11:55:43.796Z,2.30
2019-05-23T11:58:12.006Z,2.50
2019-05-23T12:01:21.581Z,2.00
2019-05-23T12:03:54.037Z,2.60
2019-05-23T12:06:25.800Z,2.20
2019-05-23T12:08:52.006Z,11.30
2019-05-23T12:11:19.708Z,6.47
2019-05-23T12:13:47.399Z,2.80
2019-05-23T12:16:16.290Z,5.30
2019-05-23T12:18:44.067Z,3.87
2019-05-23T12:21:12.812Z,2.33
2019-05-23T12:23:40.420Z,3.23
2019-05-23T12:26:08.347Z,3.10
2019-05-23T12:28:37.387Z,2.60
2019-05-23T12:31:07.604Z,2.80
2019-05-23T12:33:35.264Z,2.40
2019-05-23T12:36:03.479Z,2.67
2019-05-23T12:38:31.781Z,2.70
2019-05-23T12:40:59.586Z,3.53
2019-05-23T12:43:27.491Z,2.83
2019-05-23T12:45:57.208Z,3.90
2019-05-23T12:48:47.365Z,3.47
2019-05-23T12:51:15.887Z,3.93
2019-05-23T12:53:45.000Z,3.60
2019-05-23T12:56:14.565Z,3.07
2019-05-23T12:58:42.908Z,3.10
2019-05-23T13:01:12.993Z,3.83
2019-05-23T13:03:42.755Z,3.60
2019-05-23T13:06:10.853Z,5.20
2019-05-23T13:08:38.714Z,3.97
2019-05-23T13:11:06.545Z,2.93
2019-05-23T13:13:34.209Z,4.50
2019-05-23T13:16:04.402Z,4.73
2019-05-23T13:18:32.432Z,4.17
2019-05-23T13:21:00.873Z,4.70
2019-05-23T13:23:28.516Z,4.40
2019-05-23T13:25:56.534Z,4.00
2019-05-23T13:28:24.557Z,6.60
2019-05-23T13:33:21.053Z,3.50
2019-05-23T13:35:54.015Z,4.00
2019-05-23T13:38:21.848Z,3.80
2019-05-23T13:40:50.155Z,4.27
2019-05-23T13:43:18.156Z,4.40
2019-05-23T13:45:47.496Z,3.93
2019-05-23T13:48:15.475Z,4.07
2019-05-23T13:50:43.374Z,4.40
2019-05-23T13:53:11.422Z,4.60
2019-05-23T13:55:42.168Z,4.13
2019-05-23T13:58:10.115Z,8.20
2019-05-23T14:00:43.085Z,4.50
2019-05-23T14:03:10.765Z,4.30
2019-05-23T14:05:44.094Z,4.03
2019-05-23T14:08:13.389Z,4.17
2019-05-23T14:10:41.657Z,4.27
2019-05-23T14:13:09.709Z,4.67
2019-05-23T14:15:40.218Z,4.60
2019-05-23T14:18:08.726Z,4.13
2019-05-23T14:20:36.859Z,4.37
2019-05-23T14:23:16.565Z,4.40
2019-05-23T14:25:45.521Z,5.90
2019-05-23T14:28:13.857Z,4.53
2019-05-23T14:30:47.678Z,3.93
2019-05-23T14:33:34.244Z,4.93
2019-05-23T14:36:04.420Z,6.40
2019-05-23T14:38:34.897Z,4.13
2019-05-23T14:41:03.381Z,4.43
2019-05-23T14:43:35.955Z,4.50
2019-05-23T14:46:08.417Z,5.30
2019-05-23T14:48:54.457Z,4.20
2019-05-23T14:51:41.681Z,4.50
2019-05-23T14:54:24.240Z,4.30
2019-05-23T14:56:52.787Z,4.00
2019-05-23T14:59:21.310Z,4.40
2019-05-23T15:01:50.335Z,4.93
2019-05-23T15:04:18.305Z,4.63
2019-05-23T15:06:46.918Z,7.53
2019-05-23T15:09:20.649Z,5.40
2019-05-23T15:11:46.887Z,7.90
2019-05-23T15:14:14.720Z,6.53
2019-05-23T15:16:42.536Z,5.70
2019-05-23T15:19:10.157Z,4.93
2019-05-23T15:21:37.848Z,5.10
2019-05-23T15:24:06.022Z,5.50
2019-05-23T15:26:34.518Z,4.10
2019-05-23T15:29:02.319Z,5.03
2019-05-23T15:31:31.422Z,4.90
2019-05-23T15:34:02.667Z,5.43
2019-05-23T15:36:31.748Z,4.60
2019-05-23T15:39:09.341Z,4.83
2019-05-23T15:41:31.843Z,5.93
2019-05-23T15:43:59.445Z,5.17
2019-05-23T15:46:27.060Z,5.37
2019-05-23T15:48:55.761Z,5.20
2019-05-23T15:51:29.493Z,5.73
2019-05-23T15:54:08.762Z,5.73
2019-05-23T15:56:59.426Z,5.87
2019-05-23T15:59:41.425Z,5.07
2019-05-23T16:02:16.346Z,5.43
2019-05-23T16:04:44.302Z,5.33
2019-05-23T16:07:13.112Z,6.33
2019-05-23T16:09:40.862Z,5.87
2019-05-23T16:12:08.559Z,6.50
2019-05-23T16:14:36.644Z,7.17
2019-05-23T16:17:05.529Z,6.60
2019-05-23T16:19:34.429Z,7.13
2019-05-23T16:22:02.054Z,6.33
2019-05-23T16:24:30.111Z,6.37
2019-05-23T16:26:58.247Z,7.30
2019-05-23T16:29:27.111Z,7.07
2019-05-23T16:31:58.284Z,6.60
2019-05-23T16:34:27.793Z,6.53
2019-05-23T16:36:57.352Z,7.17
2019-05-23T16:39:25.554Z,9.70
2019-05-23T16:41:53.304Z,6.47
2019-05-23T16:44:20.933Z,6.83
2019-05-23T16:46:48.611Z,6.43
2019-05-23T16:49:17.261Z,7.40
2019-05-23T16:51:45.479Z,7.77
2019-05-23T16:54:15.745Z,8.10
2019-05-23T16:56:51.397Z,6.33
2019-05-23T16:59:50.303Z,6.50
2019-05-23T17:02:36.293Z,7.53
2019-05-23T17:05:32.992Z,11.63
2019-05-23T17:08:23.169Z,12.80
2019-05-23T17:10:56.062Z,8.53
2019-05-23T17:13:34.849Z,9.78
2019-05-23T17:16:16.320Z,8.60
2019-05-23T17:18:55.617Z,9.83
2019-05-23T17:21:41.698Z,9.48
2019-05-23T17:24:19.428Z,9.18
2019-05-23T17:27:00.981Z,8.55
2019-05-23T17:29:34.112Z,8.18
2019-05-23T17:32:03.034Z,8.20
2019-05-23T17:34:30.737Z,8.43
2019-05-23T17:36:58.342Z,9.45
2019-05-23T17:39:27.667Z,8.75
2019-05-23T17:41:55.710Z,8.60
2019-05-23T17:44:23.511Z,8.98
2019-05-23T17:46:51.488Z,8.85
2019-05-23T17:49:19.693Z,9.50
2019-05-23T17:51:47.688Z,8.73
2019-05-23T17:54:15.827Z,9.08
2019-05-23T17:56:43.666Z,9.35
2019-05-23T17:59:14.048Z,9.65
2019-05-23T18:01:42.932Z,9.88
2019-05-23T18:04:10.727Z,9.55
2019-05-23T18:06:39.114Z,9.60
2019-05-23T18:09:09.051Z,9.18
2019-05-23T18:11:36.735Z,9.75
2019-05-23T18:14:07.196Z,9.93
2019-05-23T18:16:34.890Z,10.90
2019-05-23T18:19:04.116Z,9.80
2019-05-23T18:21:31.881Z,10.28
2019-05-23T18:24:00.407Z,10.38
2019-05-23T18:26:28.984Z,12.33
2019-05-23T18:28:57.958Z,10.30
2019-05-23T18:31:28.594Z,10.20
2019-05-23T18:33:57.530Z,10.40
2019-05-23T18:36:26.698Z,10.88
2019-05-23T18:38:57.503Z,10.25
2019-05-23T18:41:25.771Z,10.70
2019-05-23T18:43:53.896Z,9.35
2019-05-23T18:46:31.261Z,10.50
2019-05-23T18:48:59.985Z,10.60
2019-05-23T18:51:29.374Z,10.03
2019-05-23T18:53:58.086Z,10.30
2019-05-23T18:56:26.086Z,11.20
2019-05-23T18:58:53.790Z,9.83
2019-05-23T19:01:24.202Z,10.13
2019-05-23T19:03:52.460Z,11.88
2019-05-23T19:06:20.481Z,11.22
2019-05-23T19:08:49.411Z,11.25
2019-05-23T19:11:21.258Z,11.03
2019-05-23T19:13:48.954Z,10.68
2019-05-23T19:16:16.702Z,10.48
2019-05-23T19:18:44.630Z,10.65
2019-05-23T19:21:14.822Z,11.75
2019-05-23T19:23:44.156Z,11.88
2019-05-23T19:26:12.062Z,12.05
2019-05-23T19:28:41.331Z,11.18
2019-05-23T19:31:09.734Z,10.90
2019-05-23T19:33:37.701Z,12.98
2019-05-23T19:36:05.678Z,10.38
2019-05-23T19:38:33.791Z,10.80
2019-05-23T19:41:01.856Z,12.20
2019-05-23T19:43:29.579Z,12.13
2019-05-23T19:45:59.253Z,14.18
2019-05-23T19:48:27.169Z,10.78
2019-05-23T19:50:55.519Z,11.93
2019-05-23T19:53:25.416Z,9.83
2019-05-23T19:55:53.406Z,10.88
2019-05-23T19:58:23.656Z,11.88
2019-05-23T20:00:51.749Z,11.48
2019-05-23T20:03:19.981Z,11.12
2019-05-23T20:05:50.002Z,10.20
2019-05-23T20:08:18.214Z,11.60
2019-05-23T20:10:46.330Z,10.18
2019-05-23T20:13:18.067Z,11.33
2019-05-23T20:15:46.051Z,9.88
2019-05-23T20:18:15.400Z,10.10
2019-05-23T20:20:43.080Z,9.30
2019-05-23T20:23:15.463Z,11.22
2019-05-23T20:25:42.218Z,10.00
2019-05-23T20:28:10.099Z,9.18
2019-05-23T20:30:55.985Z,9.45
2019-05-23T20:33:23.806Z,9.40
2019-05-23T20:35:51.841Z,9.80
2019-05-23T20:38:21.772Z,8.73
2019-05-23T20:40:49.328Z,8.15
2019-05-23T20:43:17.046Z,9.50
2019-05-23T20:45:44.968Z,9.68
2019-05-23T20:48:12.992Z,8.08
2019-05-23T20:50:40.714Z,8.48
2019-05-23T20:53:09.056Z,7.97
2019-05-23T20:55:36.922Z,9.28
2019-05-23T20:58:04.762Z,8.93
2019-05-23T21:00:54.175Z,8.43
2019-05-23T21:03:23.003Z,9.20
2019-05-23T21:05:53.706Z,10.00
2019-05-23T21:08:21.683Z,8.95
2019-05-23T21:10:49.381Z,7.87
2019-05-23T21:13:17.628Z,7.60
2019-05-23T21:15:46.877Z,8.60
2019-05-23T21:18:14.820Z,8.85
2019-05-23T21:20:42.546Z,8.65
2019-05-23T21:23:12.198Z,8.23
2019-05-23T21:25:48.342Z,9.30
2019-05-23T21:28:15.913Z,9.35
2019-05-23T21:30:43.499Z,8.65
2019-05-23T21:33:11.506Z,9.30
2019-05-23T21:35:39.506Z,8.38
2019-05-23T21:38:07.442Z,8.68
2019-05-23T21:40:44.148Z,8.20
2019-05-23T21:43:12.043Z,9.45
2019-05-23T21:45:40.135Z,8.23
2019-05-23T21:48:08.825Z,8.40
2019-05-23T21:50:37.719Z,8.78
2019-05-23T21:53:06.152Z,8.95
2019-05-23T21:55:40.208Z,9.50
2019-05-23T21:58:10.031Z,10.72
2019-05-23T22:01:25.862Z,8.85
2019-05-23T22:04:14.474Z,9.85
2019-05-23T22:06:46.495Z,10.82
2019-05-23T22:09:15.106Z,9.60
2019-05-23T22:11:43.044Z,9.85
2019-05-23T22:14:10.809Z,9.70
2019-05-23T22:16:38.491Z,10.55
2019-05-23T22:19:08.195Z,10.25
2019-05-23T22:21:36.317Z,10.43
2019-05-23T22:24:04.831Z,11.50
2019-05-23T22:26:32.969Z,10.58
2019-05-23T22:29:01.041Z,10.23
2019-05-23T22:31:29.584Z,9.98
2019-05-23T22:34:03.624Z,9.68
2019-05-23T22:36:31.670Z,9.08
2019-05-23T22:38:59.336Z,9.68
2019-05-23T22:41:27.972Z,9.63
2019-05-23T22:43:55.619Z,9.73
2019-05-23T22:46:26.217Z,9.45
2019-05-23T22:48:53.846Z,10.18
2019-05-23T22:51:21.482Z,9.95
2019-05-23T22:53:49.103Z,10.30
2019-05-23T22:56:17.124Z,9.50
2019-05-23T22:58:47.744Z,10.25
2019-05-23T23:01:16.279Z,8.75
2019-05-23T23:03:43.924Z,8.28
2019-05-23T23:06:12.041Z,9.20
2019-05-23T23:08:39.612Z,9.45
2019-05-23T23:11:08.156Z,9.55
2019-05-23T23:13:38.989Z,9.00
2019-05-23T23:16:05.778Z,8.95
2019-05-23T23:18:33.870Z,8.73
2019-05-23T23:21:02.556Z,9.43
2019-05-23T23:23:31.406Z,9.18
2019-05-23T23:25:59.136Z,9.93
2019-05-23T23:28:27.191Z,9.23
2019-05-23T23:30:55.034Z,9.50
2019-05-23T23:33:22.964Z,8.05
2019-05-23T23:35:50.636Z,9.18
2019-05-23T23:38:18.228Z,7.87
2019-05-23T23:40:46.231Z,8.25
2019-05-23T23:43:13.839Z,8.60
2019-05-23T23:45:59.274Z,8.40
2019-05-23T23:48:45.097Z,8.10
2019-05-23T23:51:31.514Z,8.60
2019-05-23T23:54:17.352Z,7.53
2019-05-23T23:57:04.446Z,7.55
2019-05-23T23:59:31.622Z,8.95
